Potsdam, NY (13676)

1:52 PM EDT on August 28, 2016 (GMT -0400)
NonFedAWOS | | Change Station

Elev 473 ft 44.68 °N, 74.95 °W | Updated 34 minutes ago

Scattered Clouds
Scattered Clouds
84 °F
Feels Like 91 °F
N
13
Wind Variable Wind from SW
Gusts 0.0 mph

Today
High -- | Low -- °F
--% Chance of Precip.
Yesterday
High -- | Low -- °F
Precip. -- in
Pressure 30.09 in
Visibility 10.0 miles
Clouds Scattered Clouds 7500 ft
Heat Index 91 °F
Dew Point 73 °F
Humidity 70%
Rainfall in
Snow Depth Not available.
6:18 AM 7:42 PM
Waning Crescent, 14% visible
METAR KMSS 281653Z AUTO 26007KT 10SM SCT075 28/21 A3010 RMK AO2 SLP190 T02830211
Pressure 30.09 in
Visibility 10.0 miles
Clouds Scattered Clouds 7500 ft
Heat Index 91 °F
Dew Point 73 °F
Humidity 70%
Rainfall in
Snow Depth Not available.
6:18 AM 7:42 PM
Waning Crescent, 14% visible
METAR KMSS 281653Z AUTO 26007KT 10SM SCT075 28/21 A3010 RMK AO2 SLP190 T02830211

10-Day Weather Forecast

Almanac

Astronomy

Aug. 28, 2016 Rise Set
Actual Time
Civil Twilight
Nautical Twilight
Astronomical Twilight
Moon
Length of Visible Light
Length of Day
Tomorrow will be .
, % of the Moon is Illuminated

Today's Extremes

State Highs State Lows

Community

WunderPhotos

Upload Photos

1,935,639 photos uploaded!

WunderBlog® & News

Nearby

Air Quality

  Air Quality AQ Index Pollutant
Not available.

Snow Depth

Station Depth Elevation

Earthquake Activity

City Distance Mag. Time & Date
Minimum magnitude displayed is 2.5.

Coastal Water Temperatures

Place Temperature

Stations

Nearby Weather Stations

Station Location Temp. Windchill Dew Point Humidity Wind Precip. Elev Updated Type
                   

Watches & Warnings

There are currently no watches in effect.